Flight Number: AVA2481 Duration: 1:15
Departure: Wichita Mid Continent Airport (KICT) at 12:00 Distance: 286.339 Nm
Arrival: Dallas/Fort Worth Int`l Airport (KDFW) at 13:15 Equipment: ATR72

Weather Information
WICHITA MID-CONTINENT AIRPORT , KS, United States (KICT) 37-39N 97-26W 408M Jul 19, 2024 - 01:53 PM EDT / 2024.07.19 1753 UTC
Wind: from the S (170 degrees) at 13 MPH (11 KT) gusting to 17 MPH (15 KT):0
Visibility: 10 mile(s):0
Sky conditions: partly cloudy Temperature: 84.9 F (29.4 C) Dew Point: 57.9 F (14.4 C) Relative Humidity: 39% Pressure (altimeter): 30.14 in. Hg (1020 hPa) Pressure tendency: 0.02 inches (0.8 hPa) lower than three hours ago
ob: KICT 191753Z 17011G15KT 10SM FEW055 FEW150 SCT190 SCT250 29/14 A3014 RMK AO2 SLP190 T02940144 10294 20167 58008 cycle: 18
Sunrise: 11:27 Sunset: 01:44 (UTC)

DALLAS/FT. WORTH INTERNATIONAL AIRPORT , TX, United States (KDFW) 32-54N 097-02W 174M Jul 19, 2024 - 01:53 PM EDT / 2024.07.19 1753 UTC
Wind: from the E (090 degrees) at 7 MPH (6 KT):0
Visibility: 10 mile(s):0
Sky conditions: partly cloudy Temperature: 88.0 F (31.1 C) Dew Point: 64.0 F (17.8 C) Relative Humidity: 45% Pressure (altimeter): 30.07 in. Hg (1018 hPa) Pressure tendency: 0.03 inches (1.1 hPa) lower than three hours ago
ob: KDFW 191753Z 09006KT 10SM SCT050 SCT250 31/18 A3007 RMK AO2 SLP174 T03110178 10317 20239 58011 cycle: 18
Sunrise: 11:37 Sunset: 01:32 (UTC)

TAF:2024/07/19 18:22 TAF KDFW 191720Z 1918/2024 10007KT P6SM SCT050 FM200400 16007KT P6SM FEW250

This route has never been flown.

Route map